createdAt,value
2023-05-04T00:05:51.187Z,10.7
2023-05-04T00:11:51.164Z,10.6
2023-05-04T00:17:51.226Z,10.6
2023-05-04T00:23:51.166Z,10.5
2023-05-04T00:29:51.175Z,10.4
2023-05-04T00:35:51.173Z,10.3
2023-05-04T00:41:51.176Z,10.2
2023-05-04T00:47:51.202Z,10.1
2023-05-04T00:53:51.161Z,10.1
2023-05-04T00:59:51.188Z,9.9
2023-05-04T01:11:51.163Z,9.9
2023-05-04T01:17:51.265Z,9.8
2023-05-04T01:23:51.186Z,9.7
2023-05-04T01:29:51.192Z,9.6
2023-05-04T01:35:51.165Z,9.6
2023-05-04T01:42:01.461Z,9.6
2023-05-04T01:47:51.229Z,9.6
2023-05-04T01:53:51.174Z,9.4
2023-05-04T01:59:51.180Z,9.3
2023-05-04T02:11:51.237Z,9.2
2023-05-04T02:17:51.182Z,9.2
2023-05-04T02:23:51.185Z,9
2023-05-04T02:29:51.186Z,9
2023-05-04T02:35:51.193Z,9
2023-05-04T02:41:51.184Z,8.9
2023-05-04T02:47:51.252Z,9
2023-05-04T02:53:51.181Z,8.9
2023-05-04T02:59:51.191Z,8.8
2023-05-04T03:05:51.179Z,8.7
2023-05-04T03:11:51.202Z,8.6
2023-05-04T03:17:51.225Z,8.6
2023-05-04T03:23:51.207Z,8.6
2023-05-04T03:29:51.172Z,8.5
2023-05-04T03:35:51.172Z,8.5
2023-05-04T03:41:51.173Z,8.4
2023-05-04T03:47:51.240Z,8.4
2023-05-04T03:53:51.382Z,8.4
2023-05-04T03:59:51.190Z,8.4
2023-05-04T04:05:51.164Z,8.4
2023-05-04T04:11:51.182Z,8.4
2023-05-04T04:17:51.222Z,8.4
2023-05-04T04:23:51.172Z,8.5
2023-05-04T04:29:51.186Z,8.5
2023-05-04T04:35:51.194Z,8.6
2023-05-04T04:41:51.184Z,8.6
2023-05-04T04:47:51.229Z,8.7
2023-05-04T04:53:51.256Z,8.8
2023-05-04T04:59:51.159Z,8.9
2023-05-04T05:05:51.150Z,8.9
2023-05-04T05:11:51.191Z,9
2023-05-04T05:17:51.239Z,9.1
2023-05-04T05:23:51.160Z,9.2
2023-05-04T05:29:51.168Z,9.3
2023-05-04T05:35:51.204Z,9.6
2023-05-04T05:41:51.161Z,9.8
2023-05-04T05:47:51.185Z,10.1
2023-05-04T05:53:51.180Z,10.3
2023-05-04T05:59:51.171Z,10.6
2023-05-04T06:11:52.927Z,11.5
2023-05-04T06:17:51.206Z,12
2023-05-04T06:23:51.204Z,12.2
2023-05-04T06:29:51.153Z,12
2023-05-04T06:41:51.175Z,13
2023-05-04T06:47:51.189Z,14.1
2023-05-04T06:53:51.191Z,15.5
2023-05-04T06:59:51.181Z,15.9
2023-05-04T07:05:51.230Z,16.8
2023-05-04T07:11:51.164Z,18.2
2023-05-04T07:17:51.219Z,17.9
2023-05-04T07:23:51.202Z,20.1
2023-05-04T07:29:51.248Z,20.4
2023-05-04T07:35:51.161Z,20.5
2023-05-04T07:41:51.167Z,21.9
2023-05-04T07:47:52.752Z,21.6
2023-05-04T07:53:51.158Z,21.2
2023-05-04T07:59:51.185Z,22.4
2023-05-04T08:05:51.188Z,22.6
2023-05-04T08:11:51.171Z,23.2
2023-05-04T08:17:51.198Z,25
2023-05-04T08:23:51.174Z,25.7
2023-05-04T08:29:51.191Z,25.3
2023-05-04T08:35:51.200Z,26
2023-05-04T08:41:51.209Z,26.5
2023-05-04T08:47:51.236Z,28.1
2023-05-04T08:53:51.214Z,27.1
2023-05-04T08:59:51.191Z,26.7
2023-05-04T09:11:51.236Z,26.1
2023-05-04T09:23:51.437Z,25.6
2023-05-04T09:29:51.216Z,25.8
2023-05-04T09:35:51.208Z,25.7
2023-05-04T09:41:51.216Z,26.9
2023-05-04T09:47:51.245Z,25.1
2023-05-04T09:53:51.226Z,24.8
2023-05-04T09:59:51.229Z,25.5
2023-05-04T10:17:51.273Z,24.6
2023-05-04T10:23:51.228Z,27.2
2023-05-04T10:29:51.221Z,25.8
2023-05-04T10:35:51.240Z,25.9
2023-05-04T10:41:51.212Z,27.2
2023-05-04T10:47:51.275Z,25.8
2023-05-04T10:53:51.223Z,26.5
2023-05-04T10:59:51.226Z,26.4
2023-05-04T11:05:51.252Z,27
2023-05-04T11:11:51.240Z,25.7
2023-05-04T11:17:51.269Z,25.5
2023-05-04T11:23:51.227Z,24
2023-05-04T11:29:51.238Z,23.4
2023-05-04T11:35:51.249Z,23.3
2023-05-04T11:41:51.251Z,22.8
2023-05-04T11:47:51.325Z,22.9
2023-05-04T11:53:51.253Z,22.3
2023-05-04T11:59:51.248Z,22.8
2023-05-04T12:05:51.258Z,22.4
2023-05-04T12:11:51.250Z,22.8
2023-05-04T12:17:51.360Z,23
2023-05-04T12:23:51.250Z,22.9
2023-05-04T12:29:51.250Z,23.3
2023-05-04T12:41:51.267Z,23.1
2023-05-04T12:47:51.264Z,23.1
2023-05-04T12:53:51.261Z,22.9
2023-05-04T12:59:51.270Z,23
2023-05-04T13:11:51.264Z,23.2
2023-05-04T13:17:51.295Z,23.6
2023-05-04T13:23:51.259Z,23.5
2023-05-04T13:29:51.339Z,23.4
2023-05-04T13:35:51.264Z,23.3
2023-05-04T13:41:51.254Z,23.2
2023-05-04T13:47:51.289Z,23.7
2023-05-04T13:53:51.268Z,23.5
2023-05-04T14:00:05.107Z,23.8
2023-05-04T14:11:51.276Z,24
2023-05-04T14:17:51.303Z,23.6
2023-05-04T14:23:51.268Z,23.5
2023-05-04T14:29:51.282Z,23.3
2023-05-04T14:41:51.266Z,23.4
2023-05-04T14:47:51.498Z,23.3
2023-05-04T14:53:51.293Z,23.2
2023-05-04T14:59:51.271Z,23.6
2023-05-04T15:05:51.289Z,23.2
2023-05-04T15:11:51.270Z,23.2
2023-05-04T15:17:51.314Z,23.4
2023-05-04T15:23:51.343Z,23.7
2023-05-04T15:29:51.335Z,23.5
2023-05-04T15:35:51.283Z,23.4
2023-05-04T15:41:51.292Z,23.4
2023-05-04T15:47:51.305Z,23.1
2023-05-04T15:53:51.286Z,23
2023-05-04T15:59:51.291Z,23.1
2023-05-04T16:05:51.306Z,22.9
2023-05-04T16:11:51.284Z,22.7
2023-05-04T16:17:51.345Z,22.7
2023-05-04T16:23:51.301Z,22.8
2023-05-04T16:29:51.382Z,22.9
2023-05-04T16:35:51.309Z,22.7
2023-05-04T16:41:51.310Z,22.5
2023-05-04T16:47:51.305Z,22.4
2023-05-04T16:53:51.301Z,22.4
2023-05-04T16:59:51.315Z,22.6
2023-05-04T17:05:51.317Z,22.6
2023-05-04T17:11:51.360Z,22.4
2023-05-04T17:17:51.363Z,22.3
2023-05-04T17:23:51.301Z,22.4
2023-05-04T17:29:51.321Z,22.1
2023-05-04T17:35:51.353Z,22
2023-05-04T17:41:51.337Z,21.9
2023-05-04T17:47:51.424Z,21.6
2023-05-04T17:53:51.343Z,21.5
2023-05-04T17:59:51.319Z,21.4
2023-05-04T18:05:51.350Z,21.3
2023-05-04T18:11:51.326Z,21.2
2023-05-04T18:17:51.347Z,21.4
2023-05-04T18:23:51.325Z,21.4
2023-05-04T18:29:51.332Z,21.3
2023-05-04T18:35:51.408Z,21.1
2023-05-04T18:41:51.348Z,20.9
2023-05-04T18:47:51.346Z,20.8
2023-05-04T18:53:51.360Z,20.7
2023-05-04T18:59:51.335Z,20.7
2023-05-04T19:11:51.350Z,20.3
2023-05-04T19:17:51.351Z,20.1
2023-05-04T19:23:51.334Z,20
2023-05-04T19:29:51.367Z,19.9
2023-05-04T19:41:51.336Z,19.6
2023-05-04T19:47:51.454Z,19.5
2023-05-04T19:53:51.342Z,19.3
2023-05-04T19:59:51.340Z,19.1
2023-05-04T20:05:51.334Z,19.1
2023-05-04T20:11:51.366Z,19
2023-05-04T20:17:51.360Z,19
2023-05-04T20:23:51.335Z,19
2023-05-04T20:29:51.357Z,18.9
2023-05-04T20:35:51.347Z,18.7
2023-05-04T20:41:51.361Z,18.5
2023-05-04T20:47:51.392Z,18.4
2023-05-04T20:53:51.342Z,18.3
2023-05-04T20:59:51.369Z,18.3
2023-05-04T21:05:51.364Z,18.2
2023-05-04T21:11:51.356Z,18.1
2023-05-04T21:17:51.455Z,18
2023-05-04T21:23:51.390Z,17.9
2023-05-04T21:29:51.356Z,17.9
2023-05-04T21:35:51.385Z,17.9
2023-05-04T21:41:51.413Z,18
2023-05-04T21:47:51.404Z,18
2023-05-04T21:53:51.403Z,17.9
2023-05-04T21:59:51.369Z,18
2023-05-04T22:05:51.367Z,17.9
2023-05-04T22:11:51.367Z,17.9
2023-05-04T22:17:51.388Z,17.9
2023-05-04T22:23:51.375Z,17.9
2023-05-04T22:29:51.406Z,17.8
2023-05-04T22:35:51.368Z,17.8
2023-05-04T22:41:51.382Z,17.7
2023-05-04T22:47:51.414Z,17.7
2023-05-04T22:53:51.388Z,17.6
2023-05-04T22:59:51.406Z,17.5
2023-05-04T23:05:51.367Z,17.6
2023-05-04T23:11:51.372Z,17.5
2023-05-04T23:17:51.419Z,17.6
2023-05-04T23:23:51.374Z,17.6
2023-05-04T23:29:51.401Z,17.5
2023-05-04T23:35:51.381Z,17.5
2023-05-04T23:41:51.382Z,17.5
2023-05-04T23:47:51.451Z,17.4
2023-05-04T23:53:51.393Z,17.3
2023-05-04T23:59:51.423Z,17.2
